Time;durP1;ratioP1;P1;durP2;ratioP2;P2;SDS_P1;SDS_P2;PMS_P1;PMS_P2;Temp;Humidity;BMP_temperature;BMP_pressure;BME280_temperature;BME280_humidity;BME280_pressure;Samples;Min_cycle;Max_cycle;Signal;HPM_P1;HPM_P2
2023/03/30 00:00:53;;;;;;;8.70;2.10;;;17.10;99.90;;;;;;7282828;19;20562;-76
2023/03/30 00:03:21;;;;;;;7.73;2.00;;;17.00;99.90;;;;;;7282750;19;20191;-75
2023/03/30 00:05:50;;;;;;;7.10;2.13;;;17.00;99.90;;;;;;7281964;19;20192;-75
2023/03/30 00:08:17;;;;;;;5.77;1.83;;;17.00;99.90;;;;;;7282135;19;20198;-73
2023/03/30 00:10:44;;;;;;;9.00;2.30;;;16.90;99.90;;;;;;7282695;19;20192;-73
2023/03/30 00:13:11;;;;;;;6.33;1.77;;;16.80;99.90;;;;;;7283946;19;20279;-74
2023/03/30 00:15:37;;;;;;;15.73;2.03;;;16.70;99.90;;;;;;7304491;19;20216;-74
2023/03/30 00:18:03;;;;;;;6.67;1.77;;;16.70;99.90;;;;;;7284417;19;20187;-75
2023/03/30 00:20:32;;;;;;;7.77;2.00;;;16.80;99.90;;;;;;7283014;19;20252;-75
2023/03/30 00:22:58;;;;;;;8.23;1.80;;;16.70;99.90;;;;;;7283910;19;20201;-75
2023/03/30 00:25:24;;;;;;;7.97;1.60;;;16.80;99.90;;;;;;7285725;19;20219;-75
2023/03/30 00:27:50;;;;;;;8.13;1.87;;;16.70;99.90;;;;;;7284795;19;20207;-75
2023/03/30 00:30:17;;;;;;;7.43;1.50;;;16.70;99.90;;;;;;7284513;19;20191;-74
2023/03/30 00:32:45;;;;;;;8.53;1.70;;;16.70;99.90;;;;;;7286081;19;20199;-74
2023/03/30 00:35:13;;;;;;;10.77;1.90;;;16.70;99.90;;;;;;7283709;19;20564;-74
2023/03/30 00:37:39;;;;;;;7.37;1.47;;;16.70;99.90;;;;;;7288896;19;20853;-75
2023/03/30 00:40:08;;;;;;;8.63;1.73;;;16.80;99.90;;;;;;7305273;19;20199;-75
2023/03/30 00:42:35;;;;;;;8.73;1.60;;;16.80;99.90;;;;;;7280886;19;20219;-75
2023/03/30 00:45:19;;;;;;;5.30;1.40;;;16.80;99.90;;;;;;7282643;19;20715;-75
2023/03/30 00:47:57;;;;;;;5.57;1.57;;;16.80;99.90;;;;;;7180256;19;2004552;-75
2023/03/30 00:50:28;;;;;;;6.93;1.53;;;16.80;99.90;;;;;;7279130;19;20201;-74
2023/03/30 00:52:57;;;;;;;7.17;1.50;;;16.80;99.90;;;;;;7282227;19;21523;-74
2023/03/30 00:55:26;;;;;;;8.43;1.77;;;16.70;99.90;;;;;;7281078;19;20278;-75
2023/03/30 00:57:53;;;;;;;10.00;1.77;;;16.60;99.90;;;;;;7281627;19;20188;-75
2023/03/30 01:00:19;;;;;;;7.30;1.53;;;16.60;99.90;;;;;;7282221;19;20228;-75
2023/03/30 01:02:54;;;;;;;8.97;1.60;;;16.60;99.90;;;;;;7281323;19;20188;-74
2023/03/30 01:05:22;;;;;;;8.00;1.50;;;16.50;99.90;;;;;;7281139;19;20188;-74
2023/03/30 01:07:49;;;;;;;7.10;1.53;;;16.60;99.90;;;;;;7282391;19;20195;-75
2023/03/30 01:10:16;;;;;;;8.37;1.87;;;16.60;99.90;;;;;;7280633;19;20199;-75
2023/03/30 01:12:42;;;;;;;7.00;1.30;;;16.60;99.90;;;;;;7281277;19;20188;-75
2023/03/30 01:15:09;;;;;;;10.13;1.70;;;16.50;99.90;;;;;;7298433;19;20195;-74
2023/03/30 01:17:44;;;;;;;4.50;1.13;;;16.50;99.90;;;;;;7308155;19;20192;-75
2023/03/30 01:20:54;;;;;;;5.53;1.47;;;16.50;99.90;;;;;;7269859;19;20551;-75
2023/03/30 01:23:47;;;;;;;7.80;1.67;;;16.50;99.90;;;;;;7185838;19;2004294;-74
2023/03/30 01:26:43;;;;;;;4.13;1.23;;;16.50;99.90;;;;;;7263448;19;20178;-75
2023/03/30 01:29:27;;;;;;;8.93;1.77;;;16.50;99.90;;;;;;7276933;19;20690;-74
2023/03/30 01:32:02;;;;;;;5.60;1.43;;;16.60;99.90;;;;;;7286766;19;20195;-74
2023/03/30 01:35:11;;;;;;;7.37;1.40;;;16.50;99.90;;;;;;7287258;19;20195;-75
2023/03/30 01:38:04;;;;;;;9.60;1.43;;;16.40;99.90;;;;;;7185326;19;2004998;-75
2023/03/30 01:40:52;;;;;;;9.63;1.73;;;16.40;99.90;;;;;;7184010;19;2006552;-75
2023/03/30 01:43:48;;;;;;;8.90;1.80;;;16.30;99.90;;;;;;7184378;19;2004732;-75
2023/03/30 01:46:16;;;;;;;7.60;1.67;;;16.30;99.90;;;;;;7184591;19;2004578;-75
2023/03/30 01:48:51;;;;;;;8.10;1.70;;;16.30;99.90;;;;;;7286932;19;20178;-75
2023/03/30 01:51:26;;;;;;;9.83;1.73;;;16.20;99.90;;;;;;7282402;19;20198;-74
2023/03/30 01:54:09;;;;;;;8.07;1.80;;;16.10;99.90;;;;;;7286212;19;20224;-75
2023/03/30 01:56:50;;;;;;;8.03;1.87;;;16.00;99.90;;;;;;7287427;19;20189;-75
2023/03/30 01:59:30;;;;;;;7.50;1.90;;;16.10;99.90;;;;;;7184225;19;2004777;-74
2023/03/30 02:02:02;;;;;;;7.87;2.27;;;16.00;99.90;;;;;;7286392;19;20218;-75
2023/03/30 02:04:34;;;;;;;7.07;1.80;;;15.90;99.90;;;;;;7287892;19;20541;-75
2023/03/30 02:07:12;;;;;;;10.33;2.37;;;15.90;99.90;;;;;;7283732;19;20218;-75
2023/03/30 02:09:40;;;;;;;6.03;1.90;;;15.90;99.90;;;;;;7286655;19;20683;-75
2023/03/30 02:12:09;;;;;;;6.17;2.17;;;15.90;99.90;;;;;;7306529;19;20689;-75
2023/03/30 02:14:37;;;;;;;8.40;1.97;;;15.80;99.90;;;;;;7286754;19;20656;-75
2023/03/30 02:17:22;;;;;;;7.67;2.00;;;15.70;99.90;;;;;;7285170;19;20199;-75
2023/03/30 02:19:48;;;;;;;6.83;1.90;;;15.80;99.90;;;;;;7183524;19;2004396;-75
2023/03/30 02:22:16;;;;;;;6.27;2.13;;;15.80;99.90;;;;;;7286241;19;20215;-75
2023/03/30 02:24:48;;;;;;;9.50;1.93;;;15.80;99.90;;;;;;7285827;19;20193;-74
2023/03/30 02:27:16;;;;;;;9.33;2.30;;;15.90;99.90;;;;;;7285711;19;20198;-75
2023/03/30 02:29:44;;;;;;;6.90;1.63;;;16.00;99.90;;;;;;7282781;19;20203;-74
2023/03/30 02:32:21;;;;;;;9.57;1.83;;;15.90;99.90;;;;;;7289253;19;20204;-74
2023/03/30 02:35:08;;;;;;;6.50;1.97;;;15.80;99.90;;;;;;7285768;19;20190;-75
2023/03/30 02:37:40;;;;;;;7.37;1.87;;;15.90;99.90;;;;;;7287535;19;20190;-75
2023/03/30 02:40:18;;;;;;;8.43;1.80;;;15.90;99.90;;;;;;7286563;19;20187;-75
2023/03/30 02:43:06;;;;;;;7.57;1.60;;;16.00;99.90;;;;;;7183077;19;2004600;-74
2023/03/30 02:45:40;;;;;;;6.87;1.87;;;16.00;99.90;;;;;;7284769;19;20682;-75
2023/03/30 02:48:12;;;;;;;8.37;1.80;;;16.10;99.90;;;;;;7285550;19;20185;-75
2023/03/30 02:51:11;;;;;;;5.13;1.40;;;16.10;99.90;;;;;;7284988;19;20191;-74
2023/03/30 02:54:16;;;;;;;9.20;1.67;;;16.30;99.90;;;;;;7080366;19;2004518;-74
2023/03/30 02:57:10;;;;;;;10.73;1.77;;;16.30;99.90;;;;;;7182733;19;2004578;-75
2023/03/30 02:59:57;;;;;;;6.13;1.50;;;16.30;99.90;;;;;;7286735;19;20198;-75
2023/03/30 03:02:47;;;;;;;6.73;1.40;;;16.20;99.90;;;;;;7182379;19;2004585;-75
2023/03/30 03:05:27;;;;;;;5.67;1.23;;;16.10;99.90;;;;;;7181911;19;2004528;-75
2023/03/30 03:08:02;;;;;;;11.00;1.70;;;16.10;99.90;;;;;;7285435;19;20183;-75
2023/03/30 03:10:28;;;;;;;6.97;1.40;;;16.10;99.90;;;;;;7284206;19;20219;-75
2023/03/30 03:12:54;;;;;;;7.30;1.40;;;16.00;99.90;;;;;;7285182;19;20651;-74
2023/03/30 03:15:21;;;;;;;7.33;1.33;;;16.00;99.90;;;;;;7283003;19;20663;-75
2023/03/30 03:18:06;;;;;;;7.83;1.60;;;16.00;99.90;;;;;;7284470;19;20183;-75
2023/03/30 03:20:32;;;;;;;8.10;1.60;;;16.00;99.90;;;;;;7285188;19;20197;-75
2023/03/30 03:23:00;;;;;;;3.97;1.30;;;16.00;99.90;;;;;;7283418;19;20551;-75
2023/03/30 03:25:27;;;;;;;4.37;1.30;;;16.10;99.90;;;;;;7284671;19;20192;-75
2023/03/30 03:28:00;;;;;;;7.70;1.40;;;16.10;99.90;;;;;;7283551;19;20202;-75
2023/03/30 03:30:32;;;;;;;4.70;1.40;;;16.20;99.90;;;;;;7283362;19;20203;-74
2023/03/30 03:33:05;;;;;;;6.03;1.40;;;16.20;99.90;;;;;;7283469;19;20195;-75
2023/03/30 03:35:31;;;;;;;7.63;1.60;;;16.00;99.90;;;;;;7282342;19;20190;-74
2023/03/30 03:38:00;;;;;;;8.33;1.63;;;15.90;99.90;;;;;;7281901;19;20187;-75
2023/03/30 03:40:26;;;;;;;5.57;1.30;;;15.80;99.90;;;;;;7283068;19;20287;-74
2023/03/30 03:42:52;;;;;;;7.27;1.50;;;15.80;99.90;;;;;;7282450;19;20254;-75
2023/03/30 03:45:18;;;;;;;8.37;1.30;;;15.80;99.90;;;;;;7282872;19;20189;-75
2023/03/30 03:47:54;;;;;;;5.50;1.30;;;15.90;99.90;;;;;;7282987;19;20189;-75
2023/03/30 03:50:34;;;;;;;6.33;1.40;;;15.90;99.90;;;;;;7281940;19;20190;-75
2023/03/30 03:53:01;;;;;;;7.30;1.40;;;15.90;99.90;;;;;;7279921;19;20230;-75
2023/03/30 03:55:28;;;;;;;7.23;1.30;;;16.00;99.90;;;;;;7282469;19;20268;-75
2023/03/30 03:57:53;;;;;;;9.53;1.60;;;16.00;99.90;;;;;;7281651;19;20199;-74
2023/03/30 04:00:22;;;;;;;7.80;1.70;;;16.10;99.90;;;;;;7282448;19;20206;-74
2023/03/30 04:02:51;;;;;;;10.80;1.80;;;16.20;99.90;;;;;;7281934;19;20237;-75
2023/03/30 04:05:17;;;;;;;10.37;1.60;;;16.10;99.90;;;;;;7283414;19;20738;-75
2023/03/30 04:07:45;;;;;;;4.23;1.40;;;16.00;99.90;;;;;;7283613;19;20261;-74
2023/03/30 04:10:13;;;;;;;8.80;1.57;;;16.10;99.90;;;;;;7281837;19;20191;-74
2023/03/30 04:13:01;;;;;;;7.00;1.80;;;16.00;99.90;;;;;;7282002;19;20198;-75
2023/03/30 04:15:55;;;;;;;5.77;1.30;;;16.00;99.90;;;;;;7181743;19;2004793;-75
2023/03/30 04:18:40;;;;;;;7.00;1.63;;;16.10;99.90;;;;;;7282355;19;20195;-74
2023/03/30 04:21:28;;;;;;;6.60;1.70;;;16.10;99.90;;;;;;7179280;19;2005515;-74
2023/03/30 04:24:10;;;;;;;10.13;1.60;;;16.00;99.90;;;;;;7284049;19;20190;-74
2023/03/30 04:26:56;;;;;;;11.83;2.30;;;15.80;99.90;;;;;;7180394;19;2004600;-74
2023/03/30 04:29:43;;;;;;;8.83;1.80;;;15.90;99.90;;;;;;7267285;19;20197;-74
2023/03/30 04:32:37;;;;;;;6.00;1.57;;;15.90;99.90;;;;;;7279440;19;20189;-75
2023/03/30 04:35:21;;;;;;;5.60;1.47;;;15.80;99.90;;;;;;7180379;19;2004676;-74
2023/03/30 04:38:06;;;;;;;9.80;1.80;;;15.60;99.90;;;;;;7281984;19;20747;-74
2023/03/30 04:40:38;;;;;;;8.93;1.63;;;15.60;99.90;;;;;;7283528;19;20269;-74
2023/03/30 04:43:12;;;;;;;6.50;1.53;;;15.60;99.90;;;;;;7282028;19;20581;-74
2023/03/30 04:45:57;;;;;;;7.97;1.57;;;15.60;99.90;;;;;;7178309;19;2004602;-75
2023/03/30 04:48:45;;;;;;;8.07;1.60;;;15.50;99.90;;;;;;7178729;19;2004688;-74
2023/03/30 04:51:39;;;;;;;4.50;1.40;;;15.50;99.90;;;;;;7283829;19;20224;-74
2023/03/30 04:54:12;;;;;;;7.53;1.80;;;15.40;99.90;;;;;;7265060;19;20562;-75
2023/03/30 04:57:14;;;;;;;7.03;1.53;;;15.50;99.90;;;;;;7267016;19;20191;-75
2023/03/30 04:59:58;;;;;;;6.73;1.63;;;15.60;99.90;;;;;;7287556;19;20642;-75
2023/03/30 05:02:52;;;;;;;4.37;1.40;;;15.50;99.90;;;;;;7185270;19;2004507;-75
2023/03/30 05:05:38;;;;;;;7.13;1.53;;;15.40;99.90;;;;;;7288090;19;20182;-75
2023/03/30 05:08:14;;;;;;;5.73;1.53;;;15.20;99.90;;;;;;7267188;19;20192;-75
2023/03/30 05:11:03;;;;;;;5.83;1.43;;;14.90;99.90;;;;;;7288321;19;20178;-75
2023/03/30 05:14:07;;;;;;;8.20;1.40;;;14.60;99.90;;;;;;7184676;19;2005077;-75
2023/03/30 05:16:44;;;;;;;9.07;1.53;;;14.30;99.90;;;;;;7265411;19;20179;-75
2023/03/30 05:19:33;;;;;;;8.57;1.67;;;14.30;99.90;;;;;;7286864;19;20188;-75
2023/03/30 05:22:28;;;;;;;9.43;1.67;;;14.30;99.90;;;;;;7185664;19;2005669;-76
2023/03/30 05:25:08;;;;;;;11.47;2.23;;;14.30;99.90;;;;;;7287881;19;20213;-76
2023/03/30 05:27:53;;;;;;;11.63;1.90;;;14.30;99.90;;;;;;7184632;19;2004599;-76
2023/03/30 05:30:38;;;;;;;10.90;1.83;;;14.30;99.90;;;;;;7288706;19;20190;-76
2023/03/30 05:33:22;;;;;;;11.43;1.90;;;14.30;99.90;;;;;;7184747;19;2004586;-76
2023/03/30 05:35:56;;;;;;;10.17;1.97;;;14.30;99.90;;;;;;7288834;19;20632;-76
2023/03/30 05:38:35;;;;;;;11.73;1.87;;;14.30;99.90;;;;;;7287305;19;20189;-76
2023/03/30 05:41:21;;;;;;;11.93;2.00;;;14.30;99.90;;;;;;7185431;19;2004791;-76
2023/03/30 05:44:07;;;;;;;7.73;1.47;;;14.30;99.90;;;;;;7288227;19;20188;-77
2023/03/30 05:46:48;;;;;;;13.53;1.90;;;14.20;99.90;;;;;;7182469;19;2004435;-77
2023/03/30 05:49:43;;;;;;;10.27;1.97;;;14.10;99.90;;;;;;7264087;19;20185;-77
2023/03/30 05:52:32;;;;;;;11.63;1.80;;;14.20;99.90;;;;;;7286602;19;20203;-76
2023/03/30 05:55:07;;;;;;;12.43;1.93;;;14.20;99.90;;;;;;7285594;19;20192;-76
2023/03/30 05:57:45;;;;;;;10.00;1.97;;;14.20;99.90;;;;;;7182611;19;2004644;-76
2023/03/30 06:00:32;;;;;;;10.00;2.00;;;14.20;99.90;;;;;;7284591;19;20307;-76
2023/03/30 06:03:05;;;;;;;10.97;2.13;;;14.20;99.90;;;;;;7282970;19;20206;-76
2023/03/30 06:05:34;;;;;;;7.53;1.73;;;14.30;99.90;;;;;;7284144;19;20566;-76
2023/03/30 06:08:00;;;;;;;11.33;2.33;;;14.40;99.90;;;;;;7286271;19;20201;-76
2023/03/30 06:10:26;;;;;;;9.60;2.03;;;14.50;99.90;;;;;;7285233;19;20264;-75
2023/03/30 06:12:53;;;;;;;9.60;1.87;;;14.70;99.90;;;;;;7280772;19;20188;-75
2023/03/30 06:15:44;;;;;;;10.83;2.03;;;14.80;99.90;;;;;;7263402;19;20192;-75
2023/03/30 06:18:14;;;;;;;9.20;2.23;;;14.50;99.90;;;;;;7283588;19;20659;-75
2023/03/30 06:20:49;;;;;;;9.80;2.30;;;14.40;99.90;;;;;;7274330;19;20218;-76
2023/03/30 06:23:15;;;;;;;10.83;2.10;;;14.10;99.90;;;;;;7285023;19;20277;-76
2023/03/30 06:25:45;;;;;;;10.27;2.20;;;14.00;99.90;;;;;;7290744;19;20187;-75
2023/03/30 06:28:11;;;;;;;8.83;1.90;;;13.90;99.90;;;;;;7291727;19;20622;-77
2023/03/30 06:30:38;;;;;;;7.10;2.53;;;13.70;99.90;;;;;;7305366;19;20271;-76
2023/03/30 06:33:06;;;;;;;8.40;2.40;;;13.60;99.90;;;;;;7285101;19;20187;-75
2023/03/30 06:35:48;;;;;;;8.13;2.30;;;13.60;99.90;;;;;;7275990;19;20179;-75
2023/03/30 06:38:17;;;;;;;11.47;2.10;;;13.50;99.90;;;;;;7283413;19;20192;-75
2023/03/30 06:40:44;;;;;;;13.13;2.50;;;13.50;99.90;;;;;;7281283;19;20214;-76
2023/03/30 06:43:19;;;;;;;12.97;2.37;;;13.50;99.90;;;;;;7307822;19;20220;-76
2023/03/30 06:45:55;;;;;;;11.40;2.30;;;13.60;99.90;;;;;;7178825;19;2004438;-75
2023/03/30 06:48:25;;;;;;;9.10;2.50;;;13.70;99.90;;;;;;7286088;19;20206;-76
2023/03/30 06:51:12;;;;;;;14.70;2.63;;;13.70;99.90;;;;;;7277475;19;20236;-76
2023/03/30 06:53:39;;;;;;;14.40;2.53;;;13.70;99.90;;;;;;7306061;19;20223;-77
2023/03/30 06:56:06;;;;;;;10.57;2.30;;;13.70;99.90;;;;;;7285535;19;20198;-76
2023/03/30 06:58:37;;;;;;;11.93;2.67;;;13.80;99.90;;;;;;7286238;19;20202;-77
2023/03/30 07:01:13;;;;;;;12.87;2.40;;;13.90;99.90;;;;;;7284223;19;20197;-75
2023/03/30 07:04:08;;;;;;;11.10;2.50;;;14.10;99.90;;;;;;7183009;19;2004401;-75
2023/03/30 07:06:56;;;;;;;12.63;2.17;;;14.80;99.90;;;;;;7180785;19;2004441;-75
2023/03/30 07:09:24;;;;;;;11.33;2.00;;;16.10;99.90;;;;;;7283062;19;20576;-76
2023/03/30 07:11:51;;;;;;;10.60;2.07;;;16.30;99.90;;;;;;7283392;19;20213;-76
2023/03/30 07:14:16;;;;;;;10.30;2.30;;;16.10;99.90;;;;;;7283413;19;20186;-76
2023/03/30 07:16:43;;;;;;;10.70;2.20;;;15.90;99.90;;;;;;7283540;19;20205;-75
2023/03/30 07:19:09;;;;;;;9.10;2.10;;;15.90;99.90;;;;;;7305388;19;20200;-75
2023/03/30 07:21:35;;;;;;;8.30;2.17;;;15.90;99.90;;;;;;7282873;19;20184;-76
2023/03/30 07:24:02;;;;;;;10.43;2.60;;;16.00;99.90;;;;;;7283811;19;20191;-76
2023/03/30 07:26:34;;;;;;;11.63;2.60;;;16.00;99.90;;;;;;7283568;19;20202;-75
2023/03/30 07:29:06;;;;;;;8.70;2.40;;;16.00;99.90;;;;;;7282405;19;20199;-77
2023/03/30 07:31:33;;;;;;;8.77;2.13;;;16.00;99.90;;;;;;7282995;19;20201;-76
2023/03/30 07:34:01;;;;;;;9.30;2.33;;;15.80;99.90;;;;;;7282278;19;20201;-76
2023/03/30 07:36:30;;;;;;;11.43;2.43;;;15.70;99.90;;;;;;7282722;19;20271;-76
2023/03/30 07:38:57;;;;;;;12.87;2.67;;;15.50;99.90;;;;;;7282755;19;20631;-76
2023/03/30 07:41:23;;;;;;;13.30;2.40;;;15.50;99.90;;;;;;7281795;19;20574;-76
2023/03/30 07:43:54;;;;;;;13.00;2.77;;;15.20;99.90;;;;;;7275676;19;20920;-76
2023/03/30 07:46:20;;;;;;;10.53;2.40;;;15.00;99.90;;;;;;7275578;19;20180;-76
2023/03/30 07:48:49;;;;;;;11.87;2.30;;;14.60;99.90;;;;;;7275237;19;20192;-77
2023/03/30 07:51:15;;;;;;;12.07;2.70;;;14.30;99.90;;;;;;7276133;19;20293;-76
2023/03/30 07:53:51;;;;;;;9.07;1.80;;;14.00;99.90;;;;;;7277528;19;20214;-76
2023/03/30 07:56:23;;;;;;;9.43;1.93;;;13.80;99.90;;;;;;7277066;19;20194;-76
2023/03/30 07:58:52;;;;;;;12.07;2.33;;;13.80;99.90;;;;;;7277086;19;20254;-76
2023/03/30 08:01:21;;;;;;;11.17;1.53;;;13.70;99.90;;;;;;7276378;19;20247;-77
2023/03/30 08:04:10;;;;;;;9.93;1.53;;;13.70;99.90;;;;;;7274442;19;20541;-76
2023/03/30 08:06:36;;;;;;;12.27;1.60;;;13.70;99.90;;;;;;7287303;19;20194;-77
2023/03/30 08:09:03;;;;;;;12.27;1.47;;;13.80;99.90;;;;;;7275950;19;20231;-75
2023/03/30 08:11:30;;;;;;;10.87;1.50;;;13.80;99.90;;;;;;7276212;19;20195;-75
2023/03/30 08:13:56;;;;;;;13.97;1.80;;;13.90;99.90;;;;;;7275579;19;20587;-75
2023/03/30 08:16:22;;;;;;;12.50;1.83;;;13.90;99.90;;;;;;7276613;19;20195;-75
2023/03/30 08:18:47;;;;;;;10.07;1.63;;;13.90;99.90;;;;;;7276536;19;20225;-75
2023/03/30 08:21:13;;;;;;;7.90;1.50;;;14.00;99.90;;;;;;7275986;19;20188;-75
2023/03/30 08:23:39;;;;;;;9.63;1.80;;;14.00;99.90;;;;;;7296405;19;20771;-75
2023/03/30 08:26:05;;;;;;;9.97;1.70;;;14.10;99.90;;;;;;7273127;19;20189;-75
2023/03/30 08:28:31;;;;;;;11.10;1.67;;;14.20;99.90;;;;;;7276049;19;20666;-76
2023/03/30 08:31:05;;;;;;;13.00;1.60;;;14.50;99.90;;;;;;7275503;19;20188;-76
2023/03/30 08:33:31;;;;;;;12.50;2.10;;;16.00;99.90;;;;;;7280373;19;20254;-76
2023/03/30 08:35:58;;;;;;;10.87;2.07;;;18.10;99.90;;;;;;7278931;19;20251;-76
2023/03/30 08:38:24;;;;;;;7.23;1.40;;;20.20;99.90;;;;;;7279915;19;20251;-76
2023/03/30 08:40:50;;;;;;;12.63;2.27;;;22.40;99.90;;;;;;7278500;19;20191;-76
2023/03/30 08:43:47;;;;;;;8.27;1.77;;;23.20;99.90;;;;;;7280303;19;20184;-76
2023/03/30 08:46:15;;;;;;;8.40;1.47;;;23.70;99.90;;;;;;7257550;19;20210;-75
2023/03/30 08:48:42;;;;;;;9.40;2.03;;;24.70;99.90;;;;;;7293313;19;20718;-75
2023/03/30 08:51:16;;;;;;;11.50;2.00;;;24.00;99.90;;;;;;7301280;19;20200;-74
2023/03/30 08:53:42;;;;;;;10.43;2.43;;;23.50;99.90;;;;;;7262748;19;20911;-74
2023/03/30 08:56:13;;;;;;;10.87;2.57;;;22.90;99.90;;;;;;7303462;19;20193;-74
2023/03/30 08:59:02;;;;;;;11.97;2.60;;;21.90;99.90;;;;;;7278555;19;20196;-74
2023/03/30 09:01:38;;;;;;;13.93;2.70;;;20.40;99.90;;;;;;7178932;19;2004910;-75
2023/03/30 09:04:15;;;;;;;16.93;3.07;;;19.80;99.90;;;;;;7279328;19;20206;-75
2023/03/30 09:06:51;;;;;;;15.73;2.40;;;19.10;99.90;;;;;;7273561;19;20199;-75
2023/03/30 09:09:29;;;;;;;16.27;2.63;;;18.70;99.90;;;;;;7279767;19;20195;-76
2023/03/30 09:12:04;;;;;;;16.40;3.03;;;18.40;99.90;;;;;;7280746;19;20197;-75
2023/03/30 09:14:48;;;;;;;14.07;2.40;;;18.20;99.90;;;;;;7281573;19;20192;-75
2023/03/30 09:17:20;;;;;;;12.97;2.27;;;18.00;99.90;;;;;;7258366;19;20197;-75
2023/03/30 09:20:00;;;;;;;16.83;2.37;;;17.80;99.90;;;;;;7280621;19;20189;-75
2023/03/30 09:22:36;;;;;;;17.33;2.30;;;17.60;99.90;;;;;;7281310;19;20556;-75
2023/03/30 09:25:05;;;;;;;14.90;2.60;;;17.60;99.90;;;;;;7279850;19;20638;-75
2023/03/30 09:27:55;;;;;;;14.37;2.30;;;17.80;99.90;;;;;;7279391;19;20208;-75
2023/03/30 09:30:38;;;;;;;14.03;2.60;;;17.50;99.90;;;;;;7176593;19;2005022;-75
2023/03/30 09:33:20;;;;;;;14.33;2.53;;;17.50;99.90;;;;;;7279454;19;20215;-75
2023/03/30 09:36:06;;;;;;;13.80;2.50;;;17.00;99.90;;;;;;7178730;19;2004713;-76
2023/03/30 09:38:32;;;;;;;15.20;2.60;;;16.60;99.90;;;;;;7285925;19;20192;-75
2023/03/30 09:41:12;;;;;;;12.13;2.33;;;16.40;99.90;;;;;;7288051;19;20624;-77
2023/03/30 09:43:45;;;;;;;12.70;2.30;;;16.40;99.90;;;;;;7286902;19;20193;-77
2023/03/30 09:46:13;;;;;;;12.37;2.00;;;16.30;99.90;;;;;;7288557;19;20534;-76
2023/03/30 09:48:40;;;;;;;15.07;2.40;;;16.20;99.90;;;;;;7288199;19;20185;-75
2023/03/30 09:51:25;;;;;;;15.20;2.40;;;16.00;99.90;;;;;;7286888;19;20880;-75
2023/03/30 09:53:58;;;;;;;11.67;2.10;;;15.90;99.90;;;;;;7183760;19;2004385;-75
2023/03/30 09:56:56;;;;;;;16.53;2.40;;;15.60;99.90;;;;;;7287993;19;20610;-75
2023/03/30 09:59:28;;;;;;;15.33;2.03;;;15.60;99.90;;;;;;7182660;19;2004741;-75
2023/03/30 10:02:15;;;;;;;16.30;2.50;;;15.50;99.90;;;;;;7286450;19;20189;-75
2023/03/30 10:04:53;;;;;;;18.37;2.73;;;15.40;99.90;;;;;;7287560;19;20197;-75
2023/03/30 10:07:29;;;;;;;18.60;2.50;;;15.00;99.90;;;;;;7184647;19;2004778;-74
2023/03/30 10:09:58;;;;;;;18.27;2.70;;;14.90;99.90;;;;;;7287543;19;20205;-75
2023/03/30 10:12:25;;;;;;;19.87;2.77;;;14.90;99.90;;;;;;7284544;19;20184;-75
2023/03/30 10:14:59;;;;;;;17.23;2.37;;;15.00;99.90;;;;;;7285838;19;20185;-76
2023/03/30 10:17:25;;;;;;;17.20;2.83;;;15.10;99.90;;;;;;7285035;19;20191;-75
2023/03/30 10:19:53;;;;;;;16.83;2.63;;;15.10;99.90;;;;;;7286344;19;20670;-75
2023/03/30 10:22:24;;;;;;;24.70;3.93;;;15.10;99.90;;;;;;7286883;19;20197;-75
2023/03/30 10:24:55;;;;;;;20.13;2.80;;;15.30;99.90;;;;;;7287811;19;20626;-75
2023/03/30 10:27:33;;;;;;;17.63;2.90;;;16.00;99.90;;;;;;7287718;19;20185;-75
2023/03/30 10:30:08;;;;;;;17.47;2.63;;;17.00;99.90;;;;;;7286588;19;20229;-75
2023/03/30 10:32:35;;;;;;;16.73;2.80;;;17.00;99.90;;;;;;7284729;19;20197;-76
2023/03/30 10:35:08;;;;;;;14.77;2.70;;;17.00;99.90;;;;;;7285029;19;20197;-76
2023/03/30 10:37:41;;;;;;;18.47;2.60;;;16.90;99.90;;;;;;7285583;19;20639;-75
2023/03/30 10:40:31;;;;;;;19.53;2.57;;;16.60;99.90;;;;;;7287212;19;20190;-76
2023/03/30 10:42:58;;;;;;;18.53;2.50;;;16.60;99.90;;;;;;7182299;19;2005008;-76
2023/03/30 10:45:48;;;;;;;18.47;2.80;;;16.50;99.90;;;;;;7284664;19;20558;-76
2023/03/30 10:48:36;;;;;;;20.17;3.30;;;16.30;99.90;;;;;;7262805;19;20194;-76
2023/03/30 10:51:24;;;;;;;23.30;3.53;;;15.90;99.90;;;;;;7283285;19;20199;-75
2023/03/30 10:54:18;;;;;;;16.83;2.83;;;15.50;99.90;;;;;;7182765;19;2005014;-76
2023/03/30 10:56:53;;;;;;;11.97;2.30;;;15.30;99.90;;;;;;7262991;19;20656;-75
2023/03/30 10:59:43;;;;;;;14.50;2.10;;;15.00;99.90;;;;;;7282759;19;20651;-76
2023/03/30 11:02:33;;;;;;;12.97;2.40;;;15.10;99.90;;;;;;7285672;19;20196;-76
2023/03/30 11:05:11;;;;;;;17.23;2.47;;;15.20;99.90;;;;;;7182527;19;2004823;-75
2023/03/30 11:08:05;;;;;;;14.10;2.37;;;15.10;99.90;;;;;;7284448;19;20214;-75
2023/03/30 11:10:44;;;;;;;18.47;2.60;;;15.20;99.90;;;;;;7180276;19;2004845;-75
2023/03/30 11:13:21;;;;;;;16.03;2.40;;;14.90;99.90;;;;;;7284806;19;20612;-76
2023/03/30 11:15:50;;;;;;;16.27;2.90;;;14.90;99.90;;;;;;7181770;19;2004575;-75
2023/03/30 11:18:34;;;;;;;15.10;2.40;;;15.20;99.90;;;;;;7283870;19;20189;-76
2023/03/30 11:21:06;;;;;;;15.37;2.90;;;16.80;99.90;;;;;;7283216;19;20649;-76
2023/03/30 11:23:52;;;;;;;16.50;3.17;;;17.90;99.90;;;;;;7282887;19;20193;-76
2023/03/30 11:26:33;;;;;;;13.10;2.33;;;19.40;99.90;;;;;;7180965;19;2004835;-75
2023/03/30 11:29:12;;;;;;;13.27;2.93;;;21.20;99.90;;;;;;7285886;19;20551;-75
2023/03/30 11:31:50;;;;;;;14.87;3.10;;;21.40;99.90;;;;;;7282594;19;20181;-76
2023/03/30 11:34:37;;;;;;;16.50;3.00;;;22.20;99.90;;;;;;7261586;19;20187;-76
2023/03/30 11:37:28;;;;;;;15.03;2.77;;;23.40;99.90;;;;;;7283821;19;20639;-76
2023/03/30 11:40:20;;;;;;;17.67;2.60;;;24.40;99.90;;;;;;7180702;19;2005235;-76
2023/03/30 11:42:47;;;;;;;14.37;2.90;;;25.90;99.90;;;;;;7262516;19;20268;-76
2023/03/30 11:45:56;;;;;;;15.80;2.93;;;26.10;99.90;;;;;;7294273;19;20196;-75
2023/03/30 11:48:37;;;;;;;14.17;2.63;;;25.50;99.90;;;;;;7181321;19;2004425;-75
2023/03/30 11:51:34;;;;;;;13.37;2.97;;;24.00;99.90;;;;;;7282355;19;20193;-76
2023/03/30 11:54:24;;;;;;;12.57;2.77;;;23.60;99.90;;;;;;7180464;19;2004749;-76
2023/03/30 11:57:01;;;;;;;13.33;2.63;;;22.90;99.90;;;;;;7178618;19;2004809;-76
2023/03/30 11:59:32;;;;;;;15.50;2.80;;;21.70;99.90;;;;;;7280174;19;20192;-76
2023/03/30 12:02:11;;;;;;;16.27;3.03;;;21.80;99.90;;;;;;7289057;19;20206;-76
2023/03/30 12:05:04;;;;;;;12.00;2.43;;;22.80;99.90;;;;;;7288229;19;20200;-76
2023/03/30 12:07:51;;;;;;;11.83;2.10;;;24.10;99.90;;;;;;7181487;19;2005115;-76
2023/03/30 12:10:24;;;;;;;16.60;3.03;;;23.30;99.90;;;;;;7259965;19;20185;-76
2023/03/30 12:12:54;;;;;;;15.70;2.93;;;23.20;99.90;;;;;;7281819;19;20260;-75
2023/03/30 12:15:45;;;;;;;14.07;2.63;;;23.60;99.90;;;;;;7281383;19;20678;-75
2023/03/30 12:18:42;;;;;;;16.50;2.70;;;23.40;99.90;;;;;;7282747;19;20204;-76
2023/03/30 12:21:19;;;;;;;12.87;2.67;;;22.80;99.90;;;;;;7179568;19;2004621;-76
2023/03/30 12:23:48;;;;;;;16.17;3.00;;;22.70;99.90;;;;;;7260042;19;20200;-75
2023/03/30 12:26:28;;;;;;;15.80;2.80;;;22.30;99.90;;;;;;7283907;19;20185;-75
2023/03/30 12:28:57;;;;;;;14.63;2.50;;;22.20;99.90;;;;;;7282084;19;20192;-75
2023/03/30 12:31:57;;;;;;;12.40;2.67;;;22.40;99.90;;;;;;7282101;19;21013;-75
2023/03/30 12:34:26;;;;;;;12.33;2.57;;;23.20;99.90;;;;;;7179702;19;2004597;-75
2023/03/30 12:37:04;;;;;;;16.20;2.60;;;23.20;99.90;;;;;;7282267;19;20201;-75
2023/03/30 12:39:32;;;;;;;15.07;2.90;;;23.10;99.90;;;;;;7281660;19;20199;-75
2023/03/30 12:42:14;;;;;;;15.17;2.70;;;22.50;99.90;;;;;;7283217;19;20747;-74
2023/03/30 12:45:03;;;;;;;16.67;3.17;;;21.50;99.90;;;;;;7282201;19;20194;-75
2023/03/30 12:47:38;;;;;;;14.60;3.00;;;21.30;99.90;;;;;;7179315;19;2004578;-75
2023/03/30 12:50:30;;;;;;;15.37;2.73;;;21.50;99.90;;;;;;7281842;19;20187;-75
2023/03/30 12:53:05;;;;;;;17.17;2.93;;;21.30;99.90;;;;;;7177997;19;2004690;-75
2023/03/30 12:56:05;;;;;;;17.97;2.80;;;20.50;99.90;;;;;;7280711;19;20640;-75
2023/03/30 12:58:55;;;;;;;13.17;3.10;;;20.90;99.90;;;;;;7178300;19;2004595;-75
2023/03/30 13:01:21;;;;;;;17.27;2.53;;;20.30;99.90;;;;;;7179068;19;2004621;-75
2023/03/30 13:04:24;;;;;;;16.20;2.43;;;19.60;99.90;;;;;;7280377;19;20647;-75
2023/03/30 13:07:00;;;;;;;14.37;2.17;;;19.90;99.90;;;;;;7178282;19;2004687;-75
2023/03/30 13:09:26;;;;;;;16.50;2.33;;;20.20;99.90;;;;;;7281910;19;20179;-75
2023/03/30 13:11:52;;;;;;;12.13;2.07;;;20.00;99.90;;;;;;7280075;19;20201;-75
2023/03/30 13:14:37;;;;;;;13.67;2.23;;;19.90;99.90;;;;;;7289597;19;20186;-75
2023/03/30 13:17:04;;;;;;;14.87;2.20;;;20.20;99.90;;;;;;7287421;19;20296;-75
2023/03/30 13:19:33;;;;;;;12.30;2.40;;;20.50;99.90;;;;;;7289075;19;20181;-75
2023/03/30 13:22:10;;;;;;;12.17;2.20;;;20.50;99.90;;;;;;7288366;19;20201;-75
2023/03/30 13:24:56;;;;;;;17.83;2.47;;;20.20;99.90;;;;;;7288091;19;20181;-75